Time;durP1;ratioP1;P1;durP2;ratioP2;P2;SDS_P1;SDS_P2;PMS_P1;PMS_P2;Temp;Humidity;BMP_temperature;BMP_pressure;BME280_temperature;BME280_humidity;BME280_pressure;Samples;Min_cycle;Max_cycle;Signal;HPM_P1;HPM_P2
2022/01/08 00:02:48;;;;;;;74.50;24.65;;;1.00;99.90;;;;;;5053561;28;20056;-74
2022/01/08 00:05:56;;;;;;;40.72;16.15;;;1.00;99.90;;;;;;5053908;28;20507;-75
2022/01/08 00:09:00;;;;;;;19.88;10.55;;;1.00;99.90;;;;;;5053553;28;20048;-74
2022/01/08 00:12:05;;;;;;;21.50;10.60;;;1.00;99.90;;;;;;5053664;28;20052;-74
2022/01/08 00:15:09;;;;;;;26.52;14.10;;;0.90;99.90;;;;;;5053885;28;20063;-74
2022/01/08 00:18:14;;;;;;;28.60;15.77;;;0.90;99.90;;;;;;5053405;28;20506;-75
2022/01/08 00:21:18;;;;;;;30.02;16.40;;;0.90;99.90;;;;;;5053563;28;20048;-75
2022/01/08 00:24:22;;;;;;;30.90;17.65;;;0.90;99.90;;;;;;5053019;28;20056;-75
2022/01/08 00:27:27;;;;;;;20.38;11.10;;;0.80;99.90;;;;;;5053601;28;20048;-75
2022/01/08 00:30:32;;;;;;;22.17;11.75;;;0.80;99.90;;;;;;5053253;28;20055;-75
2022/01/08 00:33:37;;;;;;;21.50;11.18;;;0.90;99.90;;;;;;5053133;28;20048;-75
2022/01/08 00:36:42;;;;;;;18.65;11.18;;;0.90;99.90;;;;;;5053156;28;20051;-75
2022/01/08 00:39:47;;;;;;;18.75;10.05;;;0.90;99.90;;;;;;5053189;28;20052;-75
2022/01/08 00:42:51;;;;;;;18.15;10.80;;;0.90;99.90;;;;;;5052640;28;20052;-75
2022/01/08 00:45:55;;;;;;;489.15;130.40;;;0.90;99.90;;;;;;5053344;28;20511;-75
2022/01/08 00:48:59;;;;;;;103.22;31.70;;;0.80;99.90;;;;;;5052532;28;20043;-75
2022/01/08 00:52:04;;;;;;;94.50;26.98;;;0.70;99.90;;;;;;5052926;28;20518;-75
2022/01/08 00:55:09;;;;;;;205.55;50.67;;;0.70;99.90;;;;;;5052482;28;20043;-75
2022/01/08 00:58:13;;;;;;;32.40;13.65;;;0.60;99.90;;;;;;5052547;28;20067;-75
2022/01/08 01:01:17;;;;;;;20.98;10.18;;;0.70;99.90;;;;;;5052653;28;20048;-75
2022/01/08 01:04:21;;;;;;;20.33;10.43;;;0.60;99.90;;;;;;5052071;28;20064;-75
2022/01/08 01:07:26;;;;;;;22.70;11.00;;;0.60;99.90;;;;;;5052120;28;20055;-75
2022/01/08 01:10:30;;;;;;;20.90;10.25;;;0.60;99.90;;;;;;5052363;28;20059;-75
2022/01/08 01:13:35;;;;;;;18.20;9.63;;;0.60;99.90;;;;;;5051905;28;20063;-75
2022/01/08 01:16:40;;;;;;;18.10;10.30;;;0.70;99.90;;;;;;5052188;28;20044;-75
2022/01/08 01:19:44;;;;;;;16.73;9.77;;;0.70;99.90;;;;;;5052303;28;20044;-75
2022/01/08 01:23:08;;;;;;;18.23;9.77;;;0.80;99.90;;;;;;5051876;28;20040;-75
2022/01/08 01:26:17;;;;;;;18.20;10.05;;;0.70;99.90;;;;;;5052302;28;20491;-76
2022/01/08 01:29:44;;;;;;;19.50;10.18;;;0.70;99.90;;;;;;5050903;28;20036;-75
2022/01/08 01:43:25;;;;;;;17.73;8.25;;;0.40;99.90;;;;;;5052115;28;19936;-75
2022/01/08 01:49:46;;;;;;;15.80;9.18;;;0.40;99.90;;;;;;5050935;28;20404;-76
2022/01/08 01:52:50;;;;;;;18.15;10.65;;;0.40;99.90;;;;;;5051638;28;20048;-76
2022/01/08 01:55:54;;;;;;;15.25;9.60;;;0.40;99.90;;;;;;5052046;28;20048;-76
2022/01/08 01:58:58;;;;;;;17.98;9.27;;;0.40;99.90;;;;;;5051262;28;20040;-76
2022/01/08 02:02:04;;;;;;;14.18;9.35;;;0.50;99.90;;;;;;5051540;28;20491;-76
2022/01/08 02:05:08;;;;;;;16.92;9.38;;;0.50;99.90;;;;;;5050933;28;20052;-76
2022/01/08 02:08:13;;;;;;;22.88;10.73;;;0.50;99.90;;;;;;5050896;28;20036;-76
2022/01/08 02:11:20;;;;;;;20.13;10.18;;;0.60;99.90;;;;;;5051384;28;20048;-76
2022/01/08 02:14:25;;;;;;;18.73;10.05;;;0.60;99.90;;;;;;5051174;28;20068;-76
2022/01/08 02:17:29;;;;;;;19.05;9.43;;;0.60;99.90;;;;;;5051131;28;20056;-75
2022/01/08 02:20:33;;;;;;;18.70;9.35;;;0.60;99.90;;;;;;5051068;28;20047;-75
2022/01/08 02:23:37;;;;;;;25.23;13.77;;;0.60;99.90;;;;;;5050648;28;20055;-76
2022/01/08 02:26:41;;;;;;;20.40;11.63;;;0.50;99.90;;;;;;5051157;28;20043;-76
2022/01/08 02:29:46;;;;;;;22.85;11.70;;;0.50;99.90;;;;;;5050580;28;20043;-76
2022/01/08 02:32:50;;;;;;;20.38;10.88;;;0.50;99.90;;;;;;5050872;28;20048;-75
2022/01/08 02:35:54;;;;;;;15.80;10.68;;;0.50;99.90;;;;;;5050722;28;20040;-75
2022/01/08 02:38:58;;;;;;;19.27;10.50;;;0.50;99.90;;;;;;5050373;28;20107;-76
2022/01/08 02:42:02;;;;;;;16.40;10.93;;;0.50;99.90;;;;;;5050614;28;20116;-75
2022/01/08 02:45:07;;;;;;;19.13;10.70;;;0.50;99.90;;;;;;5050152;28;20495;-76
2022/01/08 02:48:12;;;;;;;18.10;11.13;;;0.50;99.90;;;;;;5050351;28;20055;-76
2022/01/08 02:51:16;;;;;;;21.63;12.27;;;0.50;99.90;;;;;;5050405;28;20494;-75
2022/01/08 02:54:20;;;;;;;21.55;10.50;;;0.50;99.90;;;;;;5050419;28;20056;-75
2022/01/08 02:57:24;;;;;;;18.17;10.57;;;0.50;99.90;;;;;;5050190;28;20052;-75
2022/01/08 03:00:28;;;;;;;17.70;9.82;;;0.50;99.90;;;;;;5050046;28;20040;-76
2022/01/08 03:03:32;;;;;;;17.80;9.52;;;0.40;99.90;;;;;;5050491;28;20498;-76
2022/01/08 03:06:36;;;;;;;17.70;9.50;;;0.40;99.90;;;;;;5050776;28;20055;-76
2022/01/08 03:09:42;;;;;;;13.07;8.35;;;0.30;99.90;;;;;;5051210;28;20044;-76
2022/01/08 03:12:46;;;;;;;17.20;8.77;;;0.20;99.90;;;;;;5057154;28;20035;-76
2022/01/08 03:15:51;;;;;;;17.10;8.02;;;0.10;99.90;;;;;;5057016;28;20044;-75
2022/01/08 03:18:54;;;;;;;15.60;8.48;;;0.00;99.90;;;;;;5056776;28;20048;-75
2022/01/08 03:22:03;;;;;;;16.77;8.00;;;0.00;99.90;;;;;;5057097;28;20032;-76
2022/01/08 03:25:08;;;;;;;13.05;8.35;;;0.00;99.90;;;;;;5056839;28;20502;-76
2022/01/08 03:28:12;;;;;;;15.30;8.52;;;-0.10;99.90;;;;;;5056748;28;20051;-76
2022/01/08 03:31:17;;;;;;;15.25;8.80;;;-0.10;99.90;;;;;;5057046;28;20048;-76
2022/01/08 03:34:20;;;;;;;20.95;9.43;;;-0.10;99.90;;;;;;5057300;28;20057;-76
2022/01/08 03:37:24;;;;;;;22.05;13.32;;;-0.10;99.90;;;;;;5057123;28;20403;-75
2022/01/08 03:40:28;;;;;;;25.27;15.25;;;-0.20;99.90;;;;;;5056854;28;20062;-75
2022/01/08 03:43:32;;;;;;;26.85;15.13;;;-0.10;99.90;;;;;;5056871;28;20048;-75
2022/01/08 03:46:37;;;;;;;26.27;14.70;;;0.00;99.90;;;;;;5056353;28;20122;-75
2022/01/08 03:49:40;;;;;;;38.40;21.98;;;0.10;99.90;;;;;;5056670;28;20051;-76
2022/01/08 03:52:46;;;;;;;46.83;26.02;;;0.00;99.90;;;;;;5056542;28;20048;-75
2022/01/08 03:55:50;;;;;;;33.33;16.52;;;0.00;99.90;;;;;;5056674;28;20051;-75
2022/01/08 03:58:55;;;;;;;28.40;16.77;;;0.10;99.90;;;;;;5056117;28;20111;-75
2022/01/08 04:01:59;;;;;;;23.75;14.73;;;0.10;99.90;;;;;;5056722;28;20151;-76
2022/01/08 04:05:03;;;;;;;21.48;12.52;;;-0.10;99.90;;;;;;5056173;28;20056;-75
2022/01/08 04:08:10;;;;;;;23.17;12.93;;;-0.20;99.90;;;;;;5056831;28;20343;-75
2022/01/08 04:11:14;;;;;;;22.15;12.82;;;-0.20;99.90;;;;;;5056599;28;20048;-75
2022/01/08 04:14:19;;;;;;;20.98;12.80;;;-0.40;99.90;;;;;;5056595;28;20052;-75
2022/01/08 04:17:24;;;;;;;26.33;13.43;;;-0.50;99.90;;;;;;5056413;28;20051;-75
2022/01/08 04:20:29;;;;;;;23.52;14.63;;;-0.60;99.90;;;;;;5056535;28;20047;-75
2022/01/08 04:23:33;;;;;;;32.22;17.45;;;-0.50;99.90;;;;;;5052571;28;20059;-75
2022/01/08 04:26:37;;;;;;;31.65;17.05;;;-0.60;99.90;;;;;;5053384;28;20047;-75
2022/01/08 04:29:41;;;;;;;31.92;17.38;;;-0.60;99.90;;;;;;5052958;28;20506;-75
2022/01/08 04:32:46;;;;;;;35.45;19.42;;;-0.60;99.90;;;;;;5052841;28;20044;-75
2022/01/08 04:35:50;;;;;;;33.53;17.38;;;-0.60;99.90;;;;;;5052921;28;20051;-75
2022/01/08 04:38:55;;;;;;;31.23;16.77;;;-0.70;99.90;;;;;;5052932;28;20503;-75
2022/01/08 04:41:59;;;;;;;27.95;16.52;;;-0.70;99.90;;;;;;5052785;28;20055;-75
2022/01/08 04:45:04;;;;;;;28.92;16.77;;;-0.70;99.90;;;;;;5052944;28;20043;-76
2022/01/08 04:48:07;;;;;;;32.80;17.45;;;-0.70;99.90;;;;;;5052799;28;20052;-75
2022/01/08 04:51:12;;;;;;;28.27;16.88;;;-0.70;99.90;;;;;;5052802;28;20052;-76
2022/01/08 04:54:16;;;;;;;25.35;15.63;;;-0.70;99.90;;;;;;5052234;28;20043;-75
2022/01/08 04:57:20;;;;;;;27.48;15.55;;;-0.80;99.90;;;;;;5052309;28;20495;-76
2022/01/08 05:00:24;;;;;;;27.95;16.33;;;-0.80;99.90;;;;;;5052232;28;20056;-75
2022/01/08 05:03:28;;;;;;;28.27;16.45;;;-0.90;99.90;;;;;;5052183;28;20039;-75
2022/01/08 05:06:33;;;;;;;30.20;17.20;;;-0.90;99.90;;;;;;5052535;28;20396;-76
2022/01/08 05:09:37;;;;;;;32.20;18.35;;;-0.90;99.90;;;;;;5052757;28;20044;-76
2022/01/08 05:12:41;;;;;;;27.60;16.83;;;-0.80;99.90;;;;;;5052453;28;20391;-76
2022/01/08 05:15:45;;;;;;;36.90;17.80;;;-0.70;99.90;;;;;;5052368;28;20063;-75
2022/01/08 05:18:51;;;;;;;30.10;17.17;;;-0.60;99.90;;;;;;5052377;28;20048;-76
2022/01/08 05:21:58;;;;;;;28.48;18.15;;;-0.60;99.90;;;;;;5051847;28;20420;-76
2022/01/08 05:25:02;;;;;;;29.38;17.70;;;-0.70;99.90;;;;;;5051816;28;20051;-76
2022/01/08 05:28:06;;;;;;;26.00;10.55;;;-0.70;99.90;;;;;;5051782;28;20048;-76
2022/01/08 05:31:12;;;;;;;23.08;10.27;;;-0.80;99.90;;;;;;5051473;28;20056;-76
2022/01/08 05:34:16;;;;;;;11.65;6.55;;;-0.80;99.90;;;;;;5051335;28;20408;-76
2022/01/08 05:37:20;;;;;;;12.05;7.10;;;-0.80;99.90;;;;;;5051698;28;20044;-76
2022/01/08 05:40:25;;;;;;;12.00;5.88;;;-0.70;99.90;;;;;;5051661;28;20036;-75
2022/01/08 05:43:29;;;;;;;10.75;5.53;;;-0.70;99.90;;;;;;5051861;28;20495;-75
2022/01/08 05:46:33;;;;;;;8.48;5.22;;;-0.70;99.90;;;;;;5051470;28;20043;-75
2022/01/08 05:49:37;;;;;;;10.07;5.18;;;-0.80;99.90;;;;;;5051580;28;20044;-75
2022/01/08 05:52:43;;;;;;;8.93;4.93;;;-0.80;99.90;;;;;;5051605;28;20060;-76
2022/01/08 05:55:49;;;;;;;7.57;4.68;;;-0.80;99.90;;;;;;5051358;28;20589;-75
2022/01/08 05:58:53;;;;;;;8.05;5.13;;;-0.90;99.90;;;;;;5051185;28;20048;-75
2022/01/08 06:01:58;;;;;;;8.40;5.57;;;-0.90;99.90;;;;;;5050584;28;20047;-75
2022/01/08 06:05:05;;;;;;;13.35;6.32;;;-0.90;99.90;;;;;;5051883;28;20044;-75
2022/01/08 06:08:10;;;;;;;12.95;6.93;;;-1.00;99.90;;;;;;5050888;28;20052;-75
2022/01/08 06:11:14;;;;;;;10.23;6.40;;;-1.10;99.90;;;;;;5051356;28;20048;-75
2022/01/08 06:14:18;;;;;;;12.10;6.90;;;-1.10;99.90;;;;;;5050993;28;20044;-75
2022/01/08 06:17:23;;;;;;;12.93;6.85;;;-1.10;99.90;;;;;;5051114;28;20043;-75
2022/01/08 06:20:27;;;;;;;16.85;7.47;;;-1.10;99.90;;;;;;5050048;28;20052;-75
2022/01/08 06:23:31;;;;;;;16.15;7.47;;;-1.10;99.90;;;;;;5050939;28;20048;-75
2022/01/08 06:26:35;;;;;;;18.67;8.10;;;-1.10;99.90;;;;;;5050626;28;20048;-75
2022/01/08 06:29:39;;;;;;;16.20;10.43;;;-1.00;99.90;;;;;;5051030;28;20043;-75
2022/01/08 06:32:43;;;;;;;14.95;9.95;;;-1.10;99.90;;;;;;5050621;28;20502;-75
2022/01/08 06:35:48;;;;;;;19.05;11.00;;;-1.20;99.90;;;;;;5050835;28;20048;-75
2022/01/08 06:38:53;;;;;;;20.00;9.75;;;-1.30;99.90;;;;;;5050538;28;20048;-75
2022/01/08 06:41:56;;;;;;;18.55;10.05;;;-1.50;99.90;;;;;;5050928;28;20059;-75
2022/01/08 06:45:00;;;;;;;20.77;11.20;;;-1.60;99.90;;;;;;5050022;28;20044;-75
2022/01/08 06:48:05;;;;;;;22.20;12.57;;;-1.70;99.90;;;;;;5050563;28;20055;-75
2022/01/08 06:51:09;;;;;;;27.55;14.18;;;-1.70;99.90;;;;;;5050786;28;20052;-75
2022/01/08 06:54:13;;;;;;;23.35;13.25;;;-1.70;99.90;;;;;;5050597;28;20400;-75
2022/01/08 06:57:17;;;;;;;28.23;15.00;;;-1.60;99.90;;;;;;5050794;28;20056;-75
2022/01/08 07:00:22;;;;;;;28.30;14.88;;;-1.50;99.90;;;;;;5050654;28;20059;-75
2022/01/08 07:03:25;;;;;;;24.77;13.40;;;-1.40;99.90;;;;;;5050510;28;20032;-75
2022/01/08 07:06:29;;;;;;;23.98;14.73;;;-1.40;99.90;;;;;;5050508;28;20048;-75
2022/01/08 07:09:33;;;;;;;26.02;14.40;;;-1.40;99.90;;;;;;5050304;28;20051;-74
2022/01/08 07:12:37;;;;;;;24.63;14.13;;;-1.30;99.90;;;;;;5050547;28;20507;-74
2022/01/08 07:15:42;;;;;;;31.52;16.98;;;-1.10;99.90;;;;;;5050222;28;20044;-74
2022/01/08 07:18:46;;;;;;;29.42;17.95;;;-1.00;99.90;;;;;;5050271;28;20064;-75
2022/01/08 07:21:50;;;;;;;21.02;12.45;;;0.30;99.90;;;;;;5050282;28;20072;-74
2022/01/08 07:24:54;;;;;;;18.20;10.13;;;2.10;99.90;;;;;;5049160;28;20415;-75
2022/01/08 07:27:58;;;;;;;13.52;7.78;;;3.80;99.90;;;;;;5049896;28;20048;-75
2022/01/08 07:31:01;;;;;;;15.05;7.75;;;5.00;99.90;;;;;;5050577;28;20388;-75
2022/01/08 07:34:05;;;;;;;12.30;8.18;;;6.50;99.90;;;;;;5050146;28;20498;-75
2022/01/08 07:37:09;;;;;;;10.77;7.35;;;8.60;99.90;;;;;;5050103;28;20044;-75
2022/01/08 07:40:14;;;;;;;15.57;7.65;;;9.70;99.90;;;;;;5049847;28;20116;-75
2022/01/08 07:43:18;;;;;;;12.40;6.85;;;10.50;99.90;;;;;;5049244;28;20048;-75
2022/01/08 07:46:22;;;;;;;11.77;6.68;;;10.50;99.90;;;;;;5049792;28;20044;-74
2022/01/08 07:49:27;;;;;;;11.13;6.55;;;10.30;99.90;;;;;;5050047;28;20079;-75
2022/01/08 07:52:31;;;;;;;9.75;5.30;;;11.80;99.90;;;;;;5050174;28;20056;-75
2022/01/08 07:55:34;;;;;;;10.15;5.75;;;14.00;99.90;;;;;;5049773;28;20052;-75
2022/01/08 07:58:39;;;;;;;6.85;5.03;;;15.60;96.80;;;;;;5052987;28;20044;-76
2022/01/08 08:01:42;;;;;;;9.38;6.30;;;16.90;94.80;;;;;;5053818;28;20048;-76
2022/01/08 08:04:47;;;;;;;8.85;6.53;;;16.40;91.20;;;;;;5063876;28;20048;-75
2022/01/08 08:07:51;;;;;;;7.53;5.30;;;16.40;91.80;;;;;;5053818;28;20043;-76
2022/01/08 08:10:55;;;;;;;13.90;8.07;;;17.60;91.00;;;;;;5054087;28;20032;-75
2022/01/08 08:13:59;;;;;;;14.52;7.80;;;18.60;90.20;;;;;;5053536;28;20048;-76
2022/01/08 08:17:03;;;;;;;9.65;6.57;;;19.70;87.10;;;;;;5053637;28;20491;-76
2022/01/08 08:20:08;;;;;;;10.30;6.85;;;20.50;82.70;;;;;;5053305;28;20040;-76
2022/01/08 08:23:13;;;;;;;12.63;5.80;;;20.90;81.30;;;;;;5053037;28;20048;-76
2022/01/08 08:26:17;;;;;;;14.48;8.45;;;20.80;78.90;;;;;;5053100;28;20403;-76
2022/01/08 08:29:21;;;;;;;8.60;5.60;;;21.00;77.60;;;;;;5052658;28;20056;-76
2022/01/08 08:32:26;;;;;;;10.80;5.63;;;21.60;77.30;;;;;;5052851;28;20043;-77
2022/01/08 08:35:30;;;;;;;11.57;5.97;;;23.00;73.00;;;;;;5053329;28;20052;-76
2022/01/08 08:38:34;;;;;;;12.85;6.97;;;22.60;72.70;;;;;;5052316;28;20055;-77
2022/01/08 08:41:39;;;;;;;9.80;7.30;;;23.50;72.70;;;;;;5053661;28;20499;-77
2022/01/08 08:44:43;;;;;;;8.82;6.50;;;23.90;70.80;;;;;;5053634;28;20048;-77
2022/01/08 08:47:49;;;;;;;9.15;6.20;;;24.30;68.10;;;;;;5053610;28;20052;-77
2022/01/08 08:50:53;;;;;;;9.43;6.55;;;24.10;68.10;;;;;;5053003;28;20407;-77
2022/01/08 08:53:57;;;;;;;7.72;5.80;;;24.20;66.60;;;;;;5053414;28;20494;-75
2022/01/08 08:57:01;;;;;;;9.13;5.53;;;24.30;66.50;;;;;;5053475;28;20051;-76
2022/01/08 09:00:05;;;;;;;8.38;5.15;;;25.10;66.50;;;;;;5052528;28;20060;-77
2022/01/08 09:03:09;;;;;;;6.45;5.22;;;25.70;64.80;;;;;;5053434;28;20056;-76
2022/01/08 09:06:13;;;;;;;7.22;5.15;;;26.30;63.60;;;;;;5051884;28;20044;-75
2022/01/08 09:09:17;;;;;;;6.93;5.50;;;26.50;63.40;;;;;;5051732;28;20052;-75
2022/01/08 09:12:21;;;;;;;8.23;5.93;;;24.90;62.30;;;;;;5053380;28;20052;-76
2022/01/08 09:15:26;;;;;;;7.63;5.70;;;24.90;60.50;;;;;;5053240;28;20052;-76
2022/01/08 09:18:30;;;;;;;7.70;6.60;;;24.00;63.40;;;;;;5052399;28;20479;-76
2022/01/08 09:21:35;;;;;;;7.82;6.72;;;24.50;62.70;;;;;;5052706;28;20064;-75
2022/01/08 09:24:39;;;;;;;10.70;7.68;;;21.50;63.60;;;;;;5052354;28;20052;-75
2022/01/08 09:27:44;;;;;;;10.40;8.57;;;18.00;66.00;;;;;;5052848;28;20052;-74
2022/01/08 09:30:48;;;;;;;12.85;9.23;;;12.50;79.80;;;;;;5052728;28;20652;-74
2022/01/08 09:33:51;;;;;;;11.27;8.55;;;11.80;83.60;;;;;;5052243;28;20044;-75
2022/01/08 09:36:55;;;;;;;12.30;8.70;;;12.80;80.30;;;;;;5052676;28;20479;-74
2022/01/08 09:39:59;;;;;;;13.43;9.43;;;13.10;81.70;;;;;;5051965;28;20048;-74
2022/01/08 09:43:04;;;;;;;12.55;9.55;;;10.60;85.30;;;;;;5052143;28;20059;-74
2022/01/08 09:46:08;;;;;;;12.77;9.60;;;11.10;89.40;;;;;;5052294;28;20044;-74
2022/01/08 09:49:12;;;;;;;15.23;8.80;;;12.20;87.10;;;;;;5051910;28;20056;-74
2022/01/08 09:52:16;;;;;;;11.77;7.95;;;13.90;81.80;;;;;;5052569;28;20632;-75
2022/01/08 09:55:20;;;;;;;9.43;7.18;;;18.80;69.80;;;;;;5052269;28;20044;-74
2022/01/08 09:58:24;;;;;;;10.38;8.13;;;18.70;70.00;;;;;;5051975;28;20070;-74
2022/01/08 10:01:34;;;;;;;12.05;8.90;;;15.80;73.10;;;;;;5051690;28;20052;-74
2022/01/08 10:04:38;;;;;;;19.63;11.75;;;14.70;75.90;;;;;;5051594;28;20388;-75
2022/01/08 10:07:57;;;;;;;20.90;12.32;;;16.20;79.00;;;;;;5051939;28;20483;-74
2022/01/08 10:11:07;;;;;;;13.25;9.40;;;19.70;70.70;;;;;;5051254;28;20036;-74
2022/01/08 10:14:17;;;;;;;18.75;12.90;;;20.30;68.90;;;;;;5051600;28;20349;-74
2022/01/08 10:17:44;;;;;;;13.13;9.05;;;22.00;66.20;;;;;;5051450;28;20112;-74
2022/01/08 10:20:51;;;;;;;12.50;8.95;;;18.00;66.90;;;;;;5049813;28;20538;-74
2022/01/08 10:23:59;;;;;;;22.52;13.25;;;19.10;68.50;;;;;;5051117;28;20432;-74
2022/01/08 10:27:05;;;;;;;6.57;5.30;;;20.20;66.30;;;;;;5051281;28;20048;-74
2022/01/08 10:30:26;;;;;;;6.60;4.47;;;17.50;63.70;;;;;;5050316;28;20380;-74
2022/01/08 10:33:30;;;;;;;9.55;5.78;;;16.90;64.20;;;;;;5051465;28;20044;-75
2022/01/08 10:36:43;;;;;;;10.48;5.65;;;17.10;67.30;;;;;;5051335;28;20048;-75
2022/01/08 10:39:53;;;;;;;10.10;7.13;;;20.50;64.40;;;;;;5050024;28;20052;-74
2022/01/08 10:42:58;;;;;;;12.07;7.30;;;19.40;66.70;;;;;;5050868;28;20047;-75
2022/01/08 10:46:13;;;;;;;7.30;5.82;;;20.30;66.60;;;;;;5050725;28;20399;-74
2022/01/08 10:49:17;;;;;;;7.28;5.85;;;22.80;62.80;;;;;;5050570;28;20037;-74
2022/01/08 10:52:22;;;;;;;12.38;8.63;;;23.20;60.60;;;;;;5051010;28;20392;-74
2022/01/08 10:55:33;;;;;;;7.60;5.70;;;21.90;62.10;;;;;;5051058;28;20056;-74
2022/01/08 10:58:41;;;;;;;6.43;5.00;;;21.20;62.80;;;;;;5050898;28;20040;-74
2022/01/08 11:01:46;;;;;;;9.73;6.25;;;20.30;62.70;;;;;;5051153;28;20044;-74
2022/01/08 11:04:53;;;;;;;4.85;4.00;;;18.60;65.10;;;;;;5050381;28;20052;-74
2022/01/08 11:08:17;;;;;;;14.93;7.32;;;21.20;61.00;;;;;;5051032;28;20048;-74
2022/01/08 11:11:27;;;;;;;7.95;4.60;;;19.20;65.20;;;;;;5050805;28;20048;-74
2022/01/08 11:18:01;;;;;;;9.00;6.43;;;18.40;65.30;;;;;;5035119;28;20044;-75
2022/01/08 11:21:07;;;;;;;7.88;5.38;;;19.80;64.00;;;;;;5050477;28;20041;-74
2022/01/08 11:24:11;;;;;;;4.75;2.72;;;18.10;66.60;;;;;;5050443;28;20056;-75
2022/01/08 11:27:20;;;;;;;7.28;4.13;;;20.50;61.90;;;;;;5046547;28;20514;-74
2022/01/08 11:31:14;;;;;;;8.57;5.65;;;21.80;64.00;;;;;;5125774;27;20330;-61
2022/01/08 11:34:21;;;;;;;6.75;4.60;;;21.60;61.30;;;;;;5125901;28;20039;-61
2022/01/08 11:37:25;;;;;;;9.52;5.95;;;22.20;62.00;;;;;;5127782;28;20035;-59
2022/01/08 11:40:33;;;;;;;7.88;4.70;;;24.00;60.50;;;;;;5127157;28;20035;-61
2022/01/08 11:43:40;;;;;;;6.30;4.28;;;24.10;60.80;;;;;;5127765;28;20043;-60
2022/01/08 11:46:46;;;;;;;5.95;4.05;;;24.50;58.70;;;;;;5127503;28;20051;-60
2022/01/08 11:49:51;;;;;;;6.93;3.58;;;24.90;56.60;;;;;;5126589;28;20047;-60
2022/01/08 11:53:16;;;;;;;4.50;3.13;;;24.50;57.40;;;;;;5127323;28;20031;-62
2022/01/08 11:56:29;;;;;;;2.97;2.42;;;23.00;56.90;;;;;;5127363;28;20043;-60
2022/01/08 11:59:35;;;;;;;5.70;3.30;;;23.00;56.90;;;;;;5127168;28;20039;-58
2022/01/08 12:02:41;;;;;;;4.68;2.88;;;22.60;57.10;;;;;;5127579;28;20039;-60
2022/01/08 12:05:45;;;;;;;3.85;2.60;;;22.80;57.60;;;;;;5127946;28;20047;-58
2022/01/08 12:09:08;;;;;;;3.83;2.40;;;23.00;56.80;;;;;;5127043;28;20514;-61
2022/01/08 12:12:12;;;;;;;4.18;2.80;;;24.10;56.30;;;;;;5127149;28;20027;-60
2022/01/08 12:15:45;;;;;;;4.30;2.20;;;24.20;56.20;;;;;;5126973;28;20043;-58
2022/01/08 12:18:53;;;;;;;4.10;2.42;;;25.40;56.30;;;;;;5126394;28;20444;-61
2022/01/08 12:21:59;;;;;;;4.90;2.50;;;22.60;56.10;;;;;;5126580;28;20399;-60
2022/01/08 12:25:03;;;;;;;3.80;2.30;;;22.90;55.50;;;;;;5126992;28;20039;-60
2022/01/08 12:28:27;;;;;;;4.88;2.63;;;21.20;57.50;;;;;;5126072;28;20031;-62
2022/01/08 12:31:44;;;;;;;4.95;2.78;;;18.90;60.00;;;;;;5126377;28;20489;-60
2022/01/08 12:34:50;;;;;;;3.63;2.80;;;18.20;60.40;;;;;;5126429;28;20387;-60
2022/01/08 12:37:56;;;;;;;4.00;3.05;;;19.00;60.40;;;;;;5126445;28;20046;-60
2022/01/08 12:41:00;;;;;;;5.05;3.30;;;16.20;63.60;;;;;;5120971;28;20039;-61
2022/01/08 12:44:27;;;;;;;4.45;2.58;;;17.70;63.60;;;;;;5112589;28;20040;-60
2022/01/08 12:48:08;;;;;;;6.10;3.70;;;19.20;61.00;;;;;;5060755;22;20075;-74
2022/01/08 12:51:12;;;;;;;5.28;3.53;;;17.30;61.90;;;;;;5032387;28;20033;-76
2022/01/08 12:54:23;;;;;;;6.40;4.22;;;17.70;63.80;;;;;;5032308;28;20037;-74
2022/01/08 12:57:41;;;;;;;4.75;3.42;;;18.50;63.20;;;;;;5032790;28;20049;-76
2022/01/08 13:01:05;;;;;;;5.05;3.30;;;18.40;63.20;;;;;;5031559;28;20049;-73
2022/01/08 13:04:16;;;;;;;5.65;3.92;;;19.70;61.80;;;;;;5031507;28;20041;-74
2022/01/08 13:07:22;;;;;;;6.38;3.30;;;16.60;62.50;;;;;;5032515;28;20049;-75
2022/01/08 13:10:32;;;;;;;7.47;4.50;;;16.40;63.50;;;;;;5032078;28;20038;-76
2022/01/08 13:13:56;;;;;;;5.95;3.42;;;17.60;62.30;;;;;;5032165;28;20041;-75
2022/01/08 13:17:01;;;;;;;5.22;2.80;;;17.70;62.70;;;;;;5032173;28;20499;-75
2022/01/08 13:20:07;;;;;;;5.32;3.35;;;17.60;61.60;;;;;;5031834;28;20037;-75
2022/01/08 13:23:13;;;;;;;5.85;3.63;;;19.30;61.10;;;;;;5031787;28;20041;-76
2022/01/08 13:26:31;;;;;;;5.43;3.20;;;20.80;59.20;;;;;;5032062;28;20045;-74
2022/01/08 13:29:40;;;;;;;5.07;3.00;;;20.60;57.70;;;;;;5031539;28;20381;-74
2022/01/08 13:32:44;;;;;;;4.18;3.00;;;20.70;58.70;;;;;;5031633;28;20037;-74
2022/01/08 13:35:58;;;;;;;5.80;3.22;;;21.90;57.10;;;;;;5032025;28;20034;-76
2022/01/08 13:39:03;;;;;;;4.80;3.60;;;20.80;58.80;;;;;;5030644;28;20058;-76
2022/01/08 13:42:20;;;;;;;5.95;4.07;;;21.10;57.70;;;;;;5032091;28;20045;-76
2022/01/08 13:45:26;;;;;;;4.85;3.10;;;21.50;58.50;;;;;;5031544;28;20038;-76
2022/01/08 13:48:33;;;;;;;6.10;3.40;;;22.00;58.20;;;;;;5030134;28;20037;-74
2022/01/08 13:51:38;;;;;;;5.30;3.33;;;20.60;58.50;;;;;;5031479;28;20037;-76
2022/01/08 13:54:42;;;;;;;7.53;3.58;;;21.20;57.70;;;;;;5030084;28;20034;-76
2022/01/08 13:57:53;;;;;;;5.50;3.22;;;18.30;59.00;;;;;;5030434;28;20045;-76
2022/01/08 14:01:06;;;;;;;5.15;3.20;;;17.20;59.70;;;;;;5030913;28;20033;-75
2022/01/08 14:04:12;;;;;;;5.93;3.40;;;15.90;63.70;;;;;;5031049;28;20030;-75
2022/01/08 14:07:16;;;;;;;6.72;3.38;;;17.00;63.20;;;;;;5031240;28;20472;-76
2022/01/08 14:10:20;;;;;;;4.90;3.15;;;16.70;64.20;;;;;;5030723;28;20373;-76
2022/01/08 14:13:31;;;;;;;5.15;3.20;;;17.40;63.60;;;;;;5030820;28;20497;-76
2022/01/08 14:16:39;;;;;;;6.43;3.63;;;18.70;61.80;;;;;;5031329;28;20037;-74
2022/01/08 14:19:43;;;;;;;6.88;3.10;;;20.00;61.80;;;;;;5030724;28;20488;-76
2022/01/08 14:22:47;;;;;;;4.93;2.90;;;18.80;60.60;;;;;;5031537;28;20388;-76
2022/01/08 14:25:52;;;;;;;5.93;3.40;;;19.40;60.30;;;;;;5030636;28;20041;-76
2022/01/08 14:29:12;;;;;;;4.88;3.53;;;19.50;59.80;;;;;;5030360;28;20398;-74
2022/01/08 14:32:16;;;;;;;5.82;3.92;;;19.30;60.00;;;;;;5030917;28;20052;-74
2022/01/08 14:35:27;;;;;;;8.45;4.25;;;18.80;60.10;;;;;;5030688;28;20040;-74
2022/01/08 14:38:48;;;;;;;6.65;4.57;;;18.30;60.80;;;;;;5030080;28;20499;-74
2022/01/08 14:41:55;;;;;;;5.30;3.38;;;18.30;60.90;;;;;;5030689;28;20056;-74
2022/01/08 14:45:02;;;;;;;7.25;3.50;;;18.00;63.60;;;;;;5030403;28;20045;-74
2022/01/08 14:48:16;;;;;;;6.00;3.65;;;18.00;64.80;;;;;;5030237;28;20056;-75
2022/01/08 14:51:20;;;;;;;5.32;3.45;;;18.50;63.00;;;;;;5030256;28;20378;-75
2022/01/08 14:54:30;;;;;;;7.38;5.32;;;18.70;63.70;;;;;;5030262;28;20048;-75
2022/01/08 14:57:34;;;;;;;8.93;6.07;;;18.80;63.60;;;;;;5030501;28;20029;-75
2022/01/08 15:00:38;;;;;;;8.95;5.35;;;19.10;65.30;;;;;;5029597;28;20060;-75
2022/01/08 15:03:43;;;;;;;15.90;14.38;;;19.30;63.50;;;;;;5029881;28;20037;-75
2022/01/08 15:06:48;;;;;;;7.45;5.35;;;19.30;62.90;;;;;;5030317;28;20435;-75
2022/01/08 15:09:52;;;;;;;6.20;4.97;;;19.30;63.40;;;;;;5029594;28;20417;-75
2022/01/08 15:12:57;;;;;;;6.82;3.55;;;19.00;63.30;;;;;;5030420;28;20037;-75
2022/01/08 15:16:05;;;;;;;6.72;4.57;;;18.80;63.90;;;;;;5029754;28;20044;-75
2022/01/08 15:19:12;;;;;;;7.18;4.57;;;18.60;64.60;;;;;;5029694;28;20472;-76
2022/01/08 15:22:16;;;;;;;7.70;4.55;;;18.30;64.60;;;;;;5030108;28;20049;-74
2022/01/08 15:25:20;;;;;;;8.13;4.45;;;17.90;65.80;;;;;;5029470;28;20052;-74
2022/01/08 15:28:25;;;;;;;6.13;4.18;;;17.30;66.00;;;;;;5029225;28;20065;-74
2022/01/08 15:31:29;;;;;;;11.20;5.95;;;16.80;66.50;;;;;;5029771;28;20400;-76
2022/01/08 15:34:33;;;;;;;8.85;6.32;;;16.30;66.80;;;;;;5029609;28;20036;-76
2022/01/08 15:37:36;;;;;;;12.52;6.93;;;15.60;68.20;;;;;;5030114;28;20045;-76
2022/01/08 15:40:41;;;;;;;11.13;6.72;;;15.00;69.00;;;;;;5028975;28;20599;-76
2022/01/08 15:43:44;;;;;;;10.90;6.28;;;14.30;70.30;;;;;;5028983;28;20416;-76
2022/01/08 15:46:48;;;;;;;9.07;6.03;;;13.50;71.40;;;;;;5030048;28;20331;-76
2022/01/08 15:49:52;;;;;;;8.30;4.72;;;12.60;72.60;;;;;;5029134;28;20045;-76
2022/01/08 15:52:58;;;;;;;12.68;7.38;;;11.50;76.80;;;;;;5029630;28;20025;-76
2022/01/08 15:56:03;;;;;;;11.30;6.78;;;10.70;79.70;;;;;;5029480;28;20064;-76
2022/01/08 15:59:08;;;;;;;34.80;19.60;;;9.90;81.50;;;;;;5029121;28;20496;-76
2022/01/08 16:02:12;;;;;;;39.80;24.70;;;9.30;84.40;;;;;;5029703;28;20389;-76
2022/01/08 16:05:19;;;;;;;39.47;25.58;;;8.80;87.10;;;;;;5029162;28;20044;-76
2022/01/08 16:08:25;;;;;;;22.98;14.93;;;8.40;89.50;;;;;;5029343;28;20066;-76
2022/01/08 16:11:29;;;;;;;23.75;14.55;;;7.90;90.80;;;;;;5029250;28;20407;-75
2022/01/08 16:14:33;;;;;;;29.90;20.02;;;7.40;91.90;;;;;;5029799;28;20040;-75
2022/01/08 16:17:37;;;;;;;21.95;13.95;;;7.00;92.80;;;;;;5032016;28;20163;-75
2022/01/08 16:20:43;;;;;;;20.73;12.90;;;6.70;93.90;;;;;;5033511;28;20048;-75